Time;durP1;ratioP1;P1;durP2;ratioP2;P2;SDS_P1;SDS_P2;PMS_P1;PMS_P2;Temp;Humidity;BMP_temperature;BMP_pressure;BME280_temperature;BME280_humidity;BME280_pressure;Samples;Min_cycle;Max_cycle;Signal;HPM_P1;HPM_P2
2022/06/03 00:01:12;;;;;;;13.90;9.95;;;;;;;18.56;84.35;100952.94;1759782;80;21365;-89
2022/06/03 00:03:56;;;;;;;16.97;11.05;;;;;;;18.53;84.72;100947.91;1759724;80;20995;-88
2022/06/03 00:06:54;;;;;;;12.68;9.80;;;;;;;18.50;84.94;100951.67;1769929;81;21170;-90
2022/06/03 00:10:10;;;;;;;16.62;10.82;;;;;;;18.47;84.90;100949.77;1703857;81;21394;-89
2022/06/03 00:13:14;;;;;;;13.30;9.93;;;;;;;18.42;84.81;100948.35;1772568;80;20916;-89
2022/06/03 00:16:20;;;;;;;11.53;7.90;;;;;;;18.39;84.85;100946.47;1757498;79;21043;-89
2022/06/03 00:18:58;;;;;;;13.85;9.90;;;;;;;18.36;85.01;100946.72;1772314;81;20924;-89
2022/06/03 00:22:01;;;;;;;14.00;10.25;;;;;;;18.36;85.34;100941.41;1761243;80;21784;-89
2022/06/03 00:24:35;;;;;;;12.35;10.13;;;;;;;18.35;85.43;100940.58;1758911;81;20861;-89
2022/06/03 00:27:31;;;;;;;15.13;10.93;;;;;;;18.33;85.36;100937.71;1758368;81;20948;-88
2022/06/03 00:30:15;;;;;;;15.98;11.65;;;;;;;18.32;85.61;100937.34;1758773;81;21312;-89
2022/06/03 00:33:26;;;;;;;13.38;9.60;;;;;;;18.30;85.74;100936.66;1727563;80;20881;-88
2022/06/03 00:36:07;;;;;;;9.55;8.53;;;;;;;18.28;85.75;100947.41;1760080;80;21202;-88
2022/06/03 00:38:54;;;;;;;12.58;9.15;;;;;;;18.23;85.61;100942.50;1765732;79;20999;-88
2022/06/03 00:41:41;;;;;;;12.35;9.28;;;;;;;18.16;85.61;100943.16;1778801;80;20951;-88
2022/06/03 00:44:31;;;;;;;12.03;8.50;;;;;;;18.10;86.07;100947.20;1742869;80;20831;-89
2022/06/03 00:47:19;;;;;;;10.68;8.53;;;;;;;18.07;86.34;100939.48;1782885;80;20940;-89
2022/06/03 00:50:13;;;;;;;9.85;6.70;;;;;;;18.07;86.40;100939.97;1743883;80;21124;-88
2022/06/03 00:53:14;;;;;;;10.43;7.75;;;;;;;18.07;85.55;100932.02;1744363;80;20818;-89
2022/06/03 00:56:22;;;;;;;10.40;7.80;;;;;;;18.10;83.53;100937.08;1743279;81;20850;-89
2022/06/03 00:59:31;;;;;;;8.63;6.75;;;;;;;18.18;81.43;100930.59;1780724;80;20912;-88
2022/06/03 01:02:24;;;;;;;10.28;6.08;;;;;;;18.29;80.20;100932.31;1744071;81;20936;-89
2022/06/03 01:05:06;;;;;;;8.85;6.10;;;;;;;18.38;78.77;100930.17;1783024;80;21160;-88
2022/06/03 01:08:11;;;;;;;5.45;4.95;;;;;;;18.48;78.41;100935.53;1746147;80;21161;-91
2022/06/03 01:11:15;;;;;;;7.42;5.62;;;;;;;18.54;77.70;100933.64;1743650;80;20886;-90
2022/06/03 01:14:13;;;;;;;8.75;5.40;;;;;;;18.59;77.89;100938.91;1727136;81;20929;-89
2022/06/03 01:17:19;;;;;;;8.33;5.22;;;;;;;18.65;78.87;100937.50;1730249;81;20893;-89
2022/06/03 01:20:20;;;;;;;5.03;4.20;;;;;;;18.67;78.77;100928.91;1742978;81;21127;-92
2022/06/03 01:23:16;;;;;;;5.80;4.30;;;;;;;18.68;77.81;100935.09;1746172;82;20896;-88
2022/06/03 01:26:01;;;;;;;4.45;2.85;;;;;;;18.69;77.46;100942.06;1743520;80;21473;-91
2022/06/03 01:28:54;;;;;;;4.90;3.30;;;;;;;18.71;76.08;100940.11;1744205;82;20904;-88
2022/06/03 01:32:17;;;;;;;5.55;2.52;;;;;;;18.78;74.79;100942.11;1744265;82;20932;-89
2022/06/03 01:35:07;;;;;;;4.90;2.50;;;;;;;18.87;73.69;100944.42;1744378;82;21140;-89
2022/06/03 01:37:51;;;;;;;5.50;2.70;;;;;;;19.00;72.61;100945.50;1744026;82;20964;-89
2022/06/03 01:40:40;;;;;;;2.98;2.70;;;;;;;19.10;72.09;100945.02;1743894;82;21512;-89
2022/06/03 01:43:33;;;;;;;7.75;3.92;;;;;;;19.17;71.91;100949.30;1743485;82;20948;-87
2022/06/03 01:46:25;;;;;;;3.87;3.50;;;;;;;19.20;72.66;100945.84;1783398;80;20936;-88
2022/06/03 01:49:04;;;;;;;6.17;3.45;;;;;;;19.23;74.07;100946.91;1751289;80;21793;-90
2022/06/03 01:52:13;;;;;;;4.33;3.67;;;;;;;19.21;75.20;100948.87;1783339;80;20845;-88
2022/06/03 01:54:55;;;;;;;6.55;4.12;;;;;;;19.17;76.29;100948.80;1781968;80;21426;-89
2022/06/03 01:57:51;;;;;;;7.30;4.37;;;;;;;19.14;77.37;100953.08;1748939;81;20972;-88
2022/06/03 02:00:34;;;;;;;6.50;4.67;;;;;;;19.09;78.05;100958.45;1710825;80;20961;-88
2022/06/03 02:03:52;;;;;;;5.08;4.58;;;;;;;18.98;78.26;100962.07;1748539;80;21306;-89
2022/06/03 02:06:47;;;;;;;9.50;4.92;;;;;;;18.88;78.89;100959.41;1784540;80;20983;-88
2022/06/03 02:09:37;;;;;;;5.17;4.08;;;;;;;18.78;79.55;100965.19;1759879;80;21322;-88
2022/06/03 02:12:13;;;;;;;14.07;5.40;;;;;;;18.71;77.99;100960.88;1783968;80;20979;-90
2022/06/03 02:15:23;;;;;;;10.68;4.90;;;;;;;18.71;77.28;100958.71;1716784;80;20885;-88
2022/06/03 02:18:05;;;;;;;8.03;5.15;;;;;;;18.74;78.93;100967.27;1750899;81;21123;-89
2022/06/03 02:21:25;;;;;;;13.10;5.05;;;;;;;18.72;79.83;100967.89;1745808;80;20932;-89
2022/06/03 02:24:26;;;;;;;5.03;4.53;;;;;;;18.70;80.39;100978.27;1744196;81;21489;-88
2022/06/03 02:27:25;;;;;;;8.68;4.85;;;;;;;18.66;81.11;100977.72;1745550;81;20984;-89
2022/06/03 02:30:25;;;;;;;8.95;6.03;;;;;;;18.63;81.67;100987.27;1751833;81;20999;-88
2022/06/03 02:33:34;;;;;;;6.87;4.22;;;;;;;18.60;82.04;100987.55;1746389;81;21213;-89
2022/06/03 02:36:47;;;;;;;8.50;5.62;;;;;;;18.56;82.17;100990.13;1746255;82;21003;-90
2022/06/03 02:40:06;;;;;;;6.08;4.28;;;;;;;18.52;82.48;100999.33;1744728;81;20976;-90
2022/06/03 02:42:54;;;;;;;8.00;5.03;;;;;;;18.49;82.81;100997.78;1723407;82;21001;-89
2022/06/03 02:45:50;;;;;;;7.40;4.67;;;;;;;18.47;82.88;101000.23;1723608;81;21059;-89
2022/06/03 02:48:53;;;;;;;;;;;;;;;18.44;83.01;100998.69;1727897;81;21163;-89
2022/06/03 02:51:44;;;;;;;5.62;4.30;;;;;;;18.40;83.22;101010.55;1693620;81;20192;-89
2022/06/03 02:54:28;;;;;;;5.22;4.67;;;;;;;18.35;83.59;101010.94;1723814;81;20949;-89
2022/06/03 02:57:10;;;;;;;;;;;;;;;18.32;83.87;101005.91;1726480;81;20981;-87
2022/06/03 03:00:12;;;;;;;8.55;5.40;;;;;;;18.31;84.13;101007.36;1723980;81;20089;-89
2022/06/03 03:03:06;;;;;;;8.88;5.62;;;;;;;18.28;84.41;101008.97;1723737;81;21150;-89
2022/06/03 03:05:51;;;;;;;6.58;5.22;;;;;;;18.28;84.82;101015.11;1723632;81;21013;-89
2022/06/03 03:08:52;;;;;;;6.70;5.53;;;;;;;18.29;85.21;101021.26;1723340;81;20945;-88
2022/06/03 03:11:33;;;;;;;6.62;5.58;;;;;;;18.29;85.55;101024.74;1723523;81;20965;-88
2022/06/03 03:14:25;;;;;;;10.60;6.75;;;;;;;18.32;85.82;101027.16;1745517;81;20920;-90
2022/06/03 03:19:58;;;;;;;7.22;5.17;;;;;;;18.44;86.20;101023.91;1800039;78;22504;-90
2022/06/03 03:22:35;;;;;;;6.00;4.85;;;;;;;18.42;86.36;101025.86;1713334;83;20936;-87
2022/06/03 03:25:24;;;;;;;12.82;6.50;;;;;;;18.50;86.60;101039.78;1713434;82;21403;-87
2022/06/03 03:28:17;;;;;;;11.97;6.30;;;;;;;18.57;86.98;101039.63;1689742;83;20904;-88
2022/06/03 03:31:05;;;;;;;8.25;5.97;;;;;;;18.64;87.23;101038.12;1712990;82;20897;-88
2022/06/03 03:34:06;;;;;;;6.55;5.95;;;;;;;18.73;87.43;101037.80;1712938;83;20980;-88
2022/06/03 03:37:05;;;;;;;8.30;5.45;;;;;;;18.82;87.51;101047.15;1713044;82;21449;-89
2022/06/03 03:40:05;;;;;;;10.25;5.67;;;;;;;18.89;87.58;101051.94;1712960;82;21138;-88
2022/06/03 03:43:13;;;;;;;8.63;5.55;;;;;;;18.96;87.61;101052.56;1713041;82;20881;-90
2022/06/03 03:46:28;;;;;;;7.15;5.78;;;;;;;19.06;87.85;101060.59;1712921;83;20900;-87
2022/06/03 03:49:18;;;;;;;;;;;;;;;19.17;87.98;101071.59;1715536;82;21021;-87
2022/06/03 03:52:40;;;;;;;7.30;5.22;;;;;;;19.26;88.07;101083.57;1712431;83;21293;-87
2022/06/03 03:55:37;;;;;;;11.83;5.72;;;;;;;19.34;87.92;101090.02;1712939;83;21224;-89
2022/06/03 03:58:46;;;;;;;6.45;5.80;;;;;;;19.44;87.58;101094.87;1713556;81;21556;-88
2022/06/03 04:02:10;;;;;;;8.83;6.47;;;;;;;19.54;87.04;101097.53;1701920;81;20979;-88
2022/06/03 04:04:48;;;;;;;6.90;5.75;;;;;;;19.64;86.63;101093.07;1726068;83;20943;-86
2022/06/03 04:08:01;;;;;;;8.28;5.75;;;;;;;19.78;85.99;101103.31;1695033;81;20860;-89
2022/06/03 04:10:36;;;;;;;6.95;4.92;;;;;;;19.98;86.08;101104.64;1725737;83;21302;-87
2022/06/03 04:13:49;;;;;;;7.25;5.53;;;;;;;20.43;85.13;101116.85;1725976;83;20875;-88
2022/06/03 04:16:50;;;;;;;9.40;5.60;;;;;;;20.86;83.73;101118.63;1725855;83;20911;-89
2022/06/03 04:20:01;;;;;;;7.85;5.42;;;;;;;21.48;81.27;101133.56;1711781;83;20868;-88
2022/06/03 04:22:55;;;;;;;7.55;5.65;;;;;;;22.11;78.42;101154.00;1710258;84;20856;-87
2022/06/03 04:25:36;;;;;;;8.00;5.63;;;;;;;22.71;74.98;101154.12;1746410;81;21290;-88
2022/06/03 04:28:08;;;;;;;8.33;5.58;;;;;;;23.30;72.80;101158.75;1710148;82;20943;-89
2022/06/03 04:31:21;;;;;;;12.70;5.65;;;;;;;23.80;70.75;101164.61;1710106;83;20896;-87
2022/06/03 04:34:09;;;;;;;17.92;6.10;;;;;;;24.26;68.80;101178.38;1709904;81;20919;-89
2022/06/03 04:37:25;;;;;;;6.55;5.22;;;;;;;24.82;66.86;101177.97;1693299;82;20892;-87
2022/06/03 04:40:39;;;;;;;8.45;6.47;;;;;;;25.33;65.56;101172.80;1710582;84;21199;-88
2022/06/03 04:43:52;;;;;;;8.18;6.00;;;;;;;25.84;63.46;101169.13;1709999;84;20892;-87
2022/06/03 04:46:42;;;;;;;37.53;33.73;;;;;;;26.09;60.82;101166.28;1743663;82;20960;-88
2022/06/03 04:49:41;;;;;;;14.25;12.88;;;;;;;25.99;59.83;101162.48;1744655;81;20909;-88
2022/06/03 04:53:02;;;;;;;7.00;5.53;;;;;;;25.82;59.71;101161.75;1745041;81;20917;-87
2022/06/03 04:56:15;;;;;;;7.47;4.85;;;;;;;25.58;59.74;101155.52;1745562;81;21284;-88
2022/06/03 04:59:24;;;;;;;6.20;4.13;;;;;;;25.32;60.29;101147.77;1746342;82;20893;-87
2022/06/03 05:02:15;;;;;;;8.20;3.37;;;;;;;25.16;60.07;101147.83;1745755;79;20862;-87
2022/06/03 05:05:39;;;;;;;5.37;3.05;;;;;;;25.19;60.19;101144.34;1709956;82;20951;-88
2022/06/03 05:08:48;;;;;;;3.25;2.50;;;;;;;25.56;59.91;101144.63;1710124;84;20897;-89
2022/06/03 05:12:00;;;;;;;3.10;2.80;;;;;;;26.27;57.62;101139.89;1709851;84;21283;-88
2022/06/03 05:14:54;;;;;;;6.03;2.95;;;;;;;26.93;55.81;101142.76;1709717;84;20861;-87
2022/06/03 05:17:57;;;;;;;4.15;3.50;;;;;;;27.60;54.58;101144.40;1722524;80;20992;-87
2022/06/03 05:20:51;;;;;;;6.60;3.70;;;;;;;28.19;53.53;101144.67;1747927;80;20913;-87
2022/06/03 05:23:40;;;;;;;4.15;2.98;;;;;;;28.80;51.93;101148.63;1747618;80;20854;-87
2022/06/03 05:26:28;;;;;;;9.43;3.20;;;;;;;29.29;51.30;101161.12;1746805;81;20992;-88
2022/06/03 05:29:26;;;;;;;4.50;2.83;;;;;;;29.70;50.26;101154.81;1744918;82;20845;-87
2022/06/03 05:32:37;;;;;;;7.17;3.02;;;;;;;30.06;49.28;101161.20;1709816;84;21393;-87
2022/06/03 05:35:27;;;;;;;3.30;2.77;;;;;;;30.35;49.02;101184.33;1709419;84;20897;-88
2022/06/03 05:38:18;;;;;;;5.60;3.40;;;;;;;30.54;48.33;101179.09;1709731;83;20943;-89
2022/06/03 05:44:28;;;;;;;4.72;3.40;;;;;;;30.84;47.10;101179.47;1745133;80;20968;-85
2022/06/03 05:47:04;;;;;;;5.53;3.33;;;;;;;30.97;46.26;101177.24;1744655;81;21366;-87
2022/06/03 05:49:51;;;;;;;4.00;3.58;;;;;;;31.10;45.69;101175.02;1745389;82;20937;-87
2022/06/03 05:52:41;;;;;;;3.52;3.02;;;;;;;31.25;45.26;101181.00;1745377;81;20842;-88
2022/06/03 05:55:38;;;;;;;7.97;3.33;;;;;;;31.33;44.74;101184.83;1745131;81;21120;-87
2022/06/03 05:58:31;;;;;;;7.87;4.37;;;;;;;31.48;44.87;101175.09;1745429;81;20960;-87
2022/06/03 06:01:15;;;;;;;8.30;3.33;;;;;;;31.64;44.59;101171.53;1745414;81;21003;-87
2022/06/03 06:04:08;;;;;;;10.50;3.95;;;;;;;31.83;44.21;101166.52;1746524;82;20881;-86
2022/06/03 06:06:51;;;;;;;6.03;3.70;;;;;;;32.04;43.61;101165.36;1746897;81;20874;-89
2022/06/03 06:09:46;;;;;;;4.62;2.95;;;;;;;32.27;43.23;101164.73;1745977;82;21820;-89
2022/06/03 06:12:39;;;;;;;5.37;3.10;;;;;;;32.51;42.89;101163.58;1745699;81;20901;-88
2022/06/03 06:15:26;;;;;;;6.22;3.00;;;;;;;32.73;42.31;101161.28;1745818;82;20853;-88
2022/06/03 06:18:05;;;;;;;5.35;3.22;;;;;;;32.95;41.81;101159.77;1746379;80;21024;-89
2022/06/03 06:20:58;;;;;;;7.30;3.22;;;;;;;33.20;41.03;101160.22;1759141;81;20908;-88
2022/06/03 06:23:31;;;;;;;;;;;;;;;33.45;40.74;101166.88;1762480;81;21941;-87
2022/06/03 06:26:18;;;;;;;6.40;2.25;;;;;;;33.65;39.91;101144.86;1758847;80;26507;-85
2022/06/03 06:29:20;;;;;;;6.42;2.95;;;;;;;33.70;39.96;101147.70;1758654;81;20888;-88
2022/06/03 06:32:15;;;;;;;6.92;3.30;;;;;;;33.84;39.40;101150.52;1758796;81;20947;-87
2022/06/03 06:35:13;;;;;;;6.35;2.75;;;;;;;34.06;38.78;101151.30;1759259;81;20971;-84
2022/06/03 06:37:52;;;;;;;4.58;2.70;;;;;;;33.97;38.40;101145.41;1759042;81;21796;-87
2022/06/03 06:40:40;;;;;;;3.40;2.65;;;;;;;33.97;38.55;101144.05;1759188;81;20989;-87
2022/06/03 06:43:43;;;;;;;6.28;3.67;;;;;;;34.12;38.29;101139.51;1758974;80;21361;-86
2022/06/03 06:46:38;;;;;;;12.58;10.70;;;;;;;34.26;37.38;101134.64;1758806;81;23267;-85
2022/06/03 06:49:36;;;;;;;7.10;5.70;;;;;;;34.19;37.52;101140.22;1759052;81;20943;-86
2022/06/03 06:52:29;;;;;;;5.72;3.83;;;;;;;34.11;37.78;101145.21;1758375;80;20968;-87
2022/06/03 06:55:15;;;;;;;8.15;3.17;;;;;;;33.97;37.28;101139.11;1710539;83;20896;-88
2022/06/03 06:57:59;;;;;;;7.90;3.33;;;;;;;33.95;38.42;101151.61;1722814;83;21014;-86
2022/06/03 07:00:36;;;;;;;6.65;3.33;;;;;;;34.11;37.98;101145.21;1723171;83;20939;-87
2022/06/03 07:03:30;;;;;;;5.22;2.95;;;;;;;34.29;37.72;101145.63;1723589;83;20920;-88
2022/06/03 07:06:06;;;;;;;9.90;4.30;;;;;;;34.35;37.15;101147.38;1721318;83;21161;-88
2022/06/03 07:08:44;;;;;;;4.00;3.37;;;;;;;34.49;37.31;101141.17;1721990;82;20971;-87
2022/06/03 07:11:18;;;;;;;6.70;3.20;;;;;;;34.56;37.61;101145.41;1723352;81;20904;-88
2022/06/03 07:13:54;;;;;;;4.83;3.10;;;;;;;34.75;36.41;101140.69;1722767;83;20931;-88
2022/06/03 07:19:47;;;;;;;6.40;3.55;;;;;;;34.99;36.98;101138.70;1698317;82;21271;-85
2022/06/03 07:22:47;;;;;;;5.28;3.00;;;;;;;34.98;36.51;101138.42;1709141;83;21469;-87
2022/06/03 07:25:28;;;;;;;5.65;2.85;;;;;;;34.58;35.92;101141.09;1710016;82;20936;-88
2022/06/03 07:28:22;;;;;;;4.65;3.12;;;;;;;34.16;37.18;101150.23;1709795;82;20898;-89
2022/06/03 07:30:56;;;;;;;12.05;3.58;;;;;;;33.89;37.34;101154.44;1672128;84;21039;-87
2022/06/03 07:33:37;;;;;;;9.33;2.77;;;;;;;33.91;38.14;101151.78;1688743;84;21492;-88
2022/06/03 07:36:19;;;;;;;6.92;2.60;;;;;;;34.01;37.12;101154.73;1709990;84;21396;-86
2022/06/03 07:39:28;;;;;;;6.17;2.98;;;;;;;34.12;37.61;101157.20;1709826;82;20936;-87
2022/06/03 07:42:27;;;;;;;7.28;2.65;;;;;;;34.36;37.00;101152.59;1710037;84;20892;-87
2022/06/03 07:45:12;;;;;;;7.67;2.40;;;;;;;34.44;37.33;101143.22;1709897;82;21003;-88
2022/06/03 07:47:39;;;;;;;6.22;2.55;;;;;;;34.58;37.76;101155.54;1709345;84;21283;-86
2022/06/03 07:50:08;;;;;;;4.17;2.65;;;;;;;34.94;36.88;101157.69;1710165;84;21394;-88
2022/06/03 07:53:17;;;;;;;8.98;2.85;;;;;;;35.09;36.61;101156.63;1688269;84;21458;-88
2022/06/03 07:55:54;;;;;;;6.62;1.95;;;;;;;35.27;36.12;101157.55;1709532;84;20946;-89
2022/06/03 07:58:22;;;;;;;10.90;2.37;;;;;;;35.11;36.20;101155.55;1711978;83;20943;-87
2022/06/03 08:00:49;;;;;;;3.98;2.87;;;;;;;35.05;36.68;101152.73;1709683;84;20841;-88
2022/06/03 08:03:22;;;;;;;5.33;2.15;;;;;;;35.11;37.09;101156.40;1709875;82;20944;-88
2022/06/03 08:05:57;;;;;;;4.62;2.70;;;;;;;35.18;36.71;101153.02;1709359;83;20892;-88
2022/06/03 08:11:24;;;;;;;6.60;2.35;;;;;;;35.25;36.20;101158.33;1745872;81;20949;-90
2022/06/03 08:13:53;;;;;;;5.12;2.08;;;;;;;35.00;37.04;101156.73;1747298;82;21142;-88
2022/06/03 08:16:39;;;;;;;3.77;2.00;;;;;;;35.00;36.97;101154.00;1747339;82;20925;-87
2022/06/03 08:19:16;;;;;;;4.90;2.15;;;;;;;35.05;36.74;101154.09;1746476;81;20913;-88
2022/06/03 08:21:52;;;;;;;4.92;2.02;;;;;;;35.11;37.13;101145.49;1745872;82;20972;-89
2022/06/03 08:24:22;;;;;;;4.40;2.10;;;;;;;35.33;37.20;101150.28;1711471;83;20919;-89
2022/06/03 08:26:53;;;;;;;3.70;2.25;;;;;;;35.54;37.09;101155.05;1712168;81;21229;-87
2022/06/03 08:29:37;;;;;;;7.03;2.62;;;;;;;35.60;36.02;101157.34;1711792;81;21097;-88
2022/06/03 08:32:20;;;;;;;7.58;2.45;;;;;;;35.67;36.19;101153.39;1711845;84;20900;-89
2022/06/03 08:34:52;;;;;;;5.40;1.77;;;;;;;35.76;36.40;101152.45;1746271;81;20932;-89
2022/06/03 08:37:26;;;;;;;4.60;2.27;;;;;;;35.97;35.62;101143.23;1746017;81;21398;-88
2022/06/03 08:39:58;;;;;;;3.67;2.40;;;;;;;36.11;35.56;101147.29;1745696;82;21341;-89
2022/06/03 08:42:48;;;;;;;5.92;1.87;;;;;;;36.20;36.14;101158.65;1745699;81;20984;-89
2022/06/03 08:45:48;;;;;;;4.22;2.00;;;;;;;36.35;35.60;101160.22;1745650;81;20925;-88
2022/06/03 08:48:19;;;;;;;6.75;2.20;;;;;;;36.54;35.64;101167.60;1746199;80;20936;-89
2022/06/03 08:51:00;;;;;;;3.25;1.65;;;;;;;36.66;35.34;101173.83;1745843;81;20865;-88
2022/06/03 08:53:56;;;;;;;3.45;1.62;;;;;;;36.67;34.44;101182.30;1746200;82;21135;-88
2022/06/03 08:56:26;;;;;;;2.77;1.62;;;;;;;36.63;34.29;101179.77;1746139;81;20980;-89
2022/06/03 08:59:03;;;;;;;2.95;1.92;;;;;;;36.62;34.87;101187.70;1746037;81;20932;-88
2022/06/03 09:01:38;;;;;;;4.75;1.85;;;;;;;36.69;34.32;101197.91;1745807;81;20992;-88
2022/06/03 09:04:30;;;;;;;6.87;1.82;;;;;;;36.72;34.51;101202.04;1745705;81;20913;-87
2022/06/03 09:07:27;;;;;;;4.67;2.08;;;;;;;36.71;34.23;101199.84;1746458;81;21350;-88
2022/06/03 09:10:11;;;;;;;4.50;2.08;;;;;;;36.77;34.59;101208.93;1745939;82;20951;-87
2022/06/03 09:13:07;;;;;;;4.83;1.50;;;;;;;36.97;34.35;101204.27;1744950;81;20928;-89
2022/06/03 09:15:38;;;;;;;19.35;17.32;;;;;;;37.09;33.38;101206.37;1746025;81;20956;-88
2022/06/03 09:18:27;;;;;;;11.43;7.03;;;;;;;37.09;33.64;101212.39;1746391;81;20968;-88
2022/06/03 09:21:04;;;;;;;19.55;17.55;;;;;;;37.13;33.37;101218.98;1746452;81;21280;-86
2022/06/03 09:23:42;;;;;;;4.85;1.98;;;;;;;37.03;33.85;101222.40;1745444;81;21216;-88
2022/06/03 09:26:27;;;;;;;5.37;1.52;;;;;;;36.91;33.60;101228.00;1745846;81;20857;-89
2022/06/03 09:28:54;;;;;;;9.30;2.85;;;;;;;36.91;33.76;101228.00;1745184;82;20874;-88
2022/06/03 09:31:20;;;;;;;3.20;1.50;;;;;;;36.87;33.83;101232.31;1745366;81;20908;-89
2022/06/03 09:33:47;;;;;;;5.42;2.22;;;;;;;36.92;33.39;101231.01;1746020;81;20910;-89
2022/06/03 09:36:18;;;;;;;5.30;2.05;;;;;;;36.87;33.60;101226.84;1745565;81;20888;-89
2022/06/03 09:39:08;;;;;;;4.45;2.10;;;;;;;36.94;33.19;101223.93;1745614;82;20980;-88
2022/06/03 09:41:40;;;;;;;;;;;;;;;37.01;33.90;101214.98;1748168;81;20905;-88
2022/06/03 09:44:07;;;;;;;2.77;1.32;;;;;;;37.10;33.19;101212.13;1734878;82;20100;-88
2022/06/03 09:46:34;;;;;;;3.30;1.70;;;;;;;37.17;33.07;101213.30;1745592;82;21259;-89
2022/06/03 09:49:00;;;;;;;5.45;1.47;;;;;;;37.22;33.18;101213.89;1745581;81;20912;-84
2022/06/03 09:54:29;;;;;;;5.80;1.40;;;;;;;37.10;32.44;101198.44;1745566;82;20956;-89
2022/06/03 09:57:09;;;;;;;;;;;;;;;37.10;31.87;101203.09;1747068;81;20838;-89
2022/06/03 09:59:37;;;;;;;2.80;1.77;;;;;;;37.03;32.39;101190.95;1745537;82;21168;-90
2022/06/03 10:02:05;;;;;;;5.15;1.98;;;;;;;36.99;32.60;101199.92;1745323;81;20975;-89
2022/06/03 10:04:32;;;;;;;2.67;1.35;;;;;;;36.93;31.23;101197.65;1734873;82;20913;-90
2022/06/03 10:07:00;;;;;;;4.53;1.65;;;;;;;36.83;31.16;101194.80;1745298;81;21422;-89
2022/06/03 10:17:59;;;;;;;3.92;1.25;;;;;;;36.85;31.94;101184.44;1745521;82;21429;-90
2022/06/03 10:20:25;;;;;;;7.97;1.40;;;;;;;36.85;32.36;101190.73;1734955;82;21374;-87
2022/06/03 10:22:54;;;;;;;3.33;1.50;;;;;;;36.88;31.90;101190.76;1745160;81;20983;-91
2022/06/03 10:25:20;;;;;;;4.30;1.77;;;;;;;36.92;31.68;101194.64;1745202;82;21279;-89
2022/06/03 10:27:47;;;;;;;3.75;1.42;;;;;;;36.96;31.63;101184.85;1745306;81;20850;-88
2022/06/03 10:30:14;;;;;;;5.15;1.45;;;;;;;37.01;31.92;101191.74;1745032;81;20893;-87
2022/06/03 10:32:41;;;;;;;13.85;12.60;;;;;;;36.92;32.17;101191.36;1745322;82;20956;-88
2022/06/03 10:35:16;;;;;;;16.93;15.40;;;;;;;36.72;33.02;101191.11;1745648;81;21359;-88
2022/06/03 10:37:59;;;;;;;49.58;45.30;;;;;;;36.51;33.25;101188.06;1745344;82;21151;-87
2022/06/03 10:40:28;;;;;;;144.47;130.47;;;;;;;36.23;34.03;101193.09;1745851;81;20896;-89
2022/06/03 10:42:59;;;;;;;10.40;6.92;;;;;;;36.12;34.78;101194.02;1746030;82;21074;-89
2022/06/03 10:45:29;;;;;;;6.80;3.33;;;;;;;36.10;35.01;101189.31;1745888;82;20889;-86
2022/06/03 10:47:58;;;;;;;5.37;2.40;;;;;;;36.16;34.98;101189.72;1745821;81;20841;-88
2022/06/03 10:50:38;;;;;;;6.65;2.12;;;;;;;36.23;34.64;101193.65;1734901;82;20853;-88
2022/06/03 11:02:01;;;;;;;3.52;2.08;;;;;;;36.10;33.62;101183.30;1745638;82;20885;-89
2022/06/03 11:04:38;;;;;;;7.40;2.05;;;;;;;35.73;33.94;101183.49;1745495;81;21141;-87
2022/06/03 11:07:30;;;;;;;3.75;1.57;;;;;;;35.43;34.49;101184.58;1745327;81;20924;-88
2022/06/03 11:10:03;;;;;;;5.58;2.08;;;;;;;35.13;34.90;101180.20;1709544;84;20916;-85
2022/06/03 11:12:30;;;;;;;6.22;1.92;;;;;;;34.72;35.37;101179.84;1711849;81;20959;-89
2022/06/03 11:14:57;;;;;;;5.08;1.67;;;;;;;34.47;35.80;101181.72;1711649;81;20889;-88
2022/06/03 11:17:32;;;;;;;4.28;1.70;;;;;;;34.31;36.31;101185.16;1711683;81;21089;-87
2022/06/03 11:19:59;;;;;;;4.22;1.90;;;;;;;34.04;36.67;101181.50;1713586;81;20986;-89
2022/06/03 11:22:36;;;;;;;3.98;1.90;;;;;;;33.87;37.19;101187.32;1719985;80;20813;-89
2022/06/03 11:25:22;;;;;;;7.28;2.42;;;;;;;33.74;37.67;101172.56;1719688;80;21014;-88
2022/06/03 11:28:05;;;;;;;3.70;1.70;;;;;;;33.56;37.80;101169.34;1719485;83;20880;-86
2022/06/03 11:30:43;;;;;;;6.17;2.02;;;;;;;33.20;37.66;101172.45;1719374;83;21104;-88
2022/06/03 11:33:36;;;;;;;4.85;1.40;;;;;;;32.70;38.21;101172.05;1753218;81;20920;-87
2022/06/03 11:36:22;;;;;;;3.20;1.72;;;;;;;32.22;39.06;101164.58;1753040;82;20924;-87
2022/06/03 11:39:03;;;;;;;4.03;2.10;;;;;;;31.73;39.84;101160.23;1753107;82;21332;-88
2022/06/03 11:41:34;;;;;;;9.48;2.40;;;;;;;31.33;40.88;101167.21;1753876;82;20865;-89
2022/06/03 11:44:25;;;;;;;9.38;2.90;;;;;;;30.99;42.02;101162.97;1753314;82;21242;-88
2022/06/03 11:46:57;;;;;;;4.70;3.27;;;;;;;30.78;42.96;101159.47;1752252;80;20979;-88
2022/06/03 11:49:24;;;;;;;5.00;2.80;;;;;;;30.60;43.59;101154.42;1716663;82;21393;-88
2022/06/03 11:51:51;;;;;;;5.22;2.02;;;;;;;30.36;43.73;101158.09;1717129;83;21433;-89
2022/06/03 11:54:21;;;;;;;4.12;1.90;;;;;;;30.19;44.23;101158.17;1717366;83;21333;-87
2022/06/03 11:56:48;;;;;;;6.87;2.25;;;;;;;30.12;44.59;101158.17;1717394;83;22129;-88
2022/06/03 11:59:35;;;;;;;2.70;2.10;;;;;;;30.13;45.15;101159.33;1717071;83;20849;-91
2022/06/03 12:02:08;;;;;;;2.98;2.37;;;;;;;30.09;45.74;101166.19;1717338;83;20943;-88
2022/06/03 12:04:58;;;;;;;5.40;2.50;;;;;;;30.11;46.37;101168.70;1705841;83;21038;-89
2022/06/03 12:08:04;;;;;;;6.30;2.65;;;;;;;30.07;46.29;101169.63;1717490;83;20951;-90
2022/06/03 12:10:48;;;;;;;4.58;2.47;;;;;;;29.96;46.77;101175.66;1717009;82;23213;-89
2022/06/03 12:13:28;;;;;;;4.75;2.62;;;;;;;29.88;47.04;101171.78;1717287;83;20927;-88
2022/06/03 12:16:00;;;;;;;8.15;2.58;;;;;;;29.78;47.73;101169.50;1753686;81;20943;-87
2022/06/03 12:18:37;;;;;;;3.98;2.55;;;;;;;29.72;47.88;101171.66;1755232;82;20858;-89
2022/06/03 12:21:30;;;;;;;3.52;2.12;;;;;;;29.62;47.94;101169.33;1713033;82;20880;-88
2022/06/03 12:24:16;;;;;;;7.95;2.83;;;;;;;29.45;48.23;101168.03;1744926;82;21770;-90
2022/06/03 12:26:46;;;;;;;3.33;2.70;;;;;;;29.31;48.37;101183.38;1636749;85;20940;-89
2022/06/03 12:29:18;;;;;;;10.40;2.30;;;;;;;29.21;48.88;101176.16;1636911;86;21500;-88
2022/06/03 12:31:46;;;;;;;6.60;2.10;;;;;;;29.21;48.40;101177.50;1636558;86;21047;-88
2022/06/03 12:34:25;;;;;;;5.60;2.45;;;;;;;29.18;47.78;101174.70;1622521;87;21028;-89
2022/06/03 12:37:24;;;;;;;3.83;2.17;;;;;;;29.18;47.74;101180.09;1622279;88;21252;-88
2022/06/03 12:40:04;;;;;;;4.00;1.90;;;;;;;29.16;47.80;101176.76;1636455;86;20987;-90
2022/06/03 12:42:38;;;;;;;7.28;3.52;;;;;;;29.12;48.06;101174.14;1636611;86;20987;-90
2022/06/03 12:45:13;;;;;;;6.37;2.30;;;;;;;29.05;47.98;101178.66;1636891;86;20933;-88
2022/06/03 12:47:48;;;;;;;3.40;2.35;;;;;;;28.96;48.02;101169.06;1637291;86;20885;-87
2022/06/03 12:50:36;;;;;;;5.90;2.60;;;;;;;28.82;47.95;101172.21;1636892;86;21121;-90
2022/06/03 12:53:28;;;;;;;3.55;2.15;;;;;;;28.75;48.45;101172.66;1636810;86;20988;-88
2022/06/03 12:56:00;;;;;;;3.30;2.77;;;;;;;28.70;48.43;101185.41;1631937;86;20992;-90
2022/06/03 12:59:07;;;;;;;3.65;1.80;;;;;;;28.70;48.70;101188.11;1631358;87;21055;-89
2022/06/03 13:01:51;;;;;;;5.00;2.58;;;;;;;28.69;48.21;101187.28;1705959;82;20980;-87
2022/06/03 13:04:53;;;;;;;3.33;1.87;;;;;;;28.64;48.12;101175.42;1738996;82;21086;-86
2022/06/03 13:07:48;;;;;;;3.85;2.15;;;;;;;28.57;48.23;101181.27;1716805;82;21015;-84
2022/06/03 13:10:22;;;;;;;5.75;2.22;;;;;;;28.40;47.66;101187.47;1723490;82;20830;-90
2022/06/03 13:12:51;;;;;;;5.67;2.40;;;;;;;28.22;48.56;101187.42;1738240;82;20873;-90
2022/06/03 13:15:23;;;;;;;4.25;2.37;;;;;;;28.19;49.56;101178.88;1737428;81;20938;-88
2022/06/03 13:18:20;;;;;;;6.57;2.43;;;;;;;28.15;49.11;101179.80;1737844;82;21148;-87
2022/06/03 13:21:05;;;;;;;6.33;2.00;;;;;;;28.07;49.56;101176.70;1737181;81;20889;-90
2022/06/03 13:23:46;;;;;;;4.58;2.15;;;;;;;27.98;49.18;101171.66;1737800;82;20889;-90
2022/06/03 13:26:27;;;;;;;2.98;1.87;;;;;;;27.90;49.50;101173.95;1716869;82;20932;-90
2022/06/03 13:28:59;;;;;;;4.83;2.02;;;;;;;27.86;49.62;101177.56;1737589;82;20984;-85